createdAt,value
2022-09-07T00:02:15.424Z,97206.44
2022-09-07T00:05:00.714Z,97203.47
2022-09-07T00:07:46.170Z,97192.00
2022-09-07T00:10:31.672Z,97189.34
2022-09-07T00:13:16.946Z,97189.59
2022-09-07T00:16:08.347Z,97186.63
2022-09-07T00:19:00.119Z,97184.22
2022-09-07T00:21:46.019Z,97185.81
2022-09-07T00:24:31.219Z,97188.47
2022-09-07T00:27:16.777Z,97187.66
2022-09-07T00:30:02.141Z,97184.69
2022-09-07T00:32:47.513Z,97180.16
2022-09-07T00:35:32.857Z,97172.38
2022-09-07T00:38:18.450Z,97167.88
2022-09-07T00:41:04.295Z,97174.75
2022-09-07T00:43:56.010Z,97182.97
2022-09-07T00:46:41.460Z,97175.41
2022-09-07T00:49:27.167Z,97174.06
2022-09-07T00:52:14.245Z,97172.69
2022-09-07T00:55:06.305Z,97174.81
2022-09-07T00:57:55.744Z,97165.47
2022-09-07T01:00:44.667Z,97167.34
2022-09-07T01:03:34.972Z,97172.09
2022-09-07T01:06:26.580Z,97161.41
2022-09-07T01:09:16.188Z,97162.94
2022-09-07T01:12:02.789Z,97161.38
2022-09-07T01:14:51.789Z,97151.75
2022-09-07T01:18:07.608Z,97156.53
2022-09-07T01:21:24.973Z,97153.56
2022-09-07T01:24:24.617Z,97155.94
2022-09-07T01:27:19.431Z,97161.78
2022-09-07T01:30:10.661Z,97160.94
2022-09-07T01:33:06.669Z,97158.53
2022-09-07T01:36:03.872Z,97158.25
2022-09-07T01:39:02.113Z,97159.56
2022-09-07T01:41:54.667Z,97161.13
2022-09-07T01:45:01.408Z,97162.97
2022-09-07T01:47:52.087Z,97164.53
2022-09-07T01:50:44.797Z,97159.47
2022-09-07T01:53:30.081Z,97158.91
2022-09-07T01:56:32.480Z,97153.28
2022-09-07T01:59:21.727Z,97153.53
2022-09-07T02:02:16.676Z,97155.63
2022-09-07T02:05:09.413Z,97153.44
2022-09-07T02:08:04.735Z,97151.31
2022-09-07T02:10:55.527Z,97144.06
2022-09-07T02:13:56.139Z,97150.69
2022-09-07T02:16:51.925Z,97149.81
2022-09-07T02:19:42.765Z,97149.28
2022-09-07T02:22:32.018Z,97147.91
2022-09-07T02:25:28.507Z,97147.34
2022-09-07T02:28:22.304Z,97147.84
2022-09-07T02:31:08.345Z,97143.03
2022-09-07T02:33:53.602Z,97144.06
2022-09-07T02:36:44.383Z,97138.69
2022-09-07T02:39:30.102Z,97142.41
2022-09-07T02:42:15.190Z,97139.75
2022-09-07T02:45:04.440Z,97140.00
2022-09-07T02:47:50.157Z,97138.97
2022-09-07T02:50:44.967Z,97149.34
2022-09-07T02:53:58.758Z,97142.66
2022-09-07T02:57:14.098Z,97150.34
2022-09-07T03:00:15.380Z,97144.44
2022-09-07T03:03:11.011Z,97150.81
2022-09-07T03:06:03.538Z,97145.75
2022-09-07T03:08:53.043Z,97144.38
2022-09-07T03:11:39.004Z,97149.41
2022-09-07T03:14:26.328Z,97147.00
2022-09-07T03:17:13.064Z,97150.69
2022-09-07T03:19:58.959Z,97147.00
2022-09-07T03:22:46.667Z,97144.56
2022-09-07T03:25:32.352Z,97146.69
2022-09-07T03:28:17.653Z,97147.47
2022-09-07T03:31:03.175Z,97149.56
2022-09-07T03:33:48.760Z,97145.53
2022-09-07T03:36:35.042Z,97142.56
2022-09-07T03:39:23.695Z,97154.59
2022-09-07T03:42:09.256Z,97148.19
2022-09-07T03:44:54.425Z,97158.31
2022-09-07T03:47:40.127Z,97162.25
2022-09-07T03:50:25.651Z,97164.31
2022-09-07T03:53:11.105Z,97167.13
2022-09-07T03:56:02.130Z,97169.00
2022-09-07T03:58:48.785Z,97162.31
2022-09-07T04:01:34.678Z,97170.31
2022-09-07T04:04:20.186Z,97168.94
2022-09-07T04:07:06.763Z,97174.50
2022-09-07T04:09:52.497Z,97180.28
2022-09-07T04:12:37.946Z,97172.56
2022-09-07T04:15:23.722Z,97174.19
2022-09-07T04:18:09.011Z,97180.28
2022-09-07T04:20:59.094Z,97174.72
2022-09-07T04:23:45.503Z,97169.66
2022-09-07T04:26:33.689Z,97176.03
2022-09-07T04:29:19.014Z,97168.31
2022-09-07T04:32:04.457Z,97171.22
2022-09-07T04:34:51.955Z,97168.78
2022-09-07T04:37:37.621Z,97175.16
2022-09-07T04:40:22.949Z,97166.03
2022-09-07T04:43:09.675Z,97170.25
2022-09-07T04:45:55.709Z,97166.38
2022-09-07T04:48:41.040Z,97167.84
2022-09-07T04:51:29.330Z,97168.63
2022-09-07T04:54:14.815Z,97170.00
2022-09-07T04:57:00.393Z,97171.38
2022-09-07T04:59:45.713Z,97169.03
2022-09-07T05:02:31.056Z,97164.28
2022-09-07T05:05:16.693Z,97162.22
2022-09-07T05:08:02.141Z,97160.91
2022-09-07T05:10:56.858Z,97160.66
2022-09-07T05:13:43.017Z,97168.38
2022-09-07T05:16:30.365Z,97167.34
2022-09-07T05:19:16.473Z,97166.88
2022-09-07T05:22:02.401Z,97164.53
2022-09-07T05:24:48.217Z,97167.41
2022-09-07T05:27:33.767Z,97163.25
2022-09-07T05:36:30.466Z,97168.59
2022-09-07T05:39:16.230Z,97168.44
2022-09-07T05:42:01.643Z,97169.25
2022-09-07T05:44:46.968Z,97171.34
2022-09-07T05:47:32.390Z,97170.03
2022-09-07T05:50:17.876Z,97173.59
2022-09-07T05:53:03.180Z,97184.75
2022-09-07T05:55:51.715Z,97193.56
2022-09-07T05:58:37.576Z,97197.59
2022-09-07T06:01:23.213Z,97197.97
2022-09-07T06:04:08.776Z,97185.84
2022-09-07T06:13:05.398Z,97181.38
2022-09-07T06:15:50.741Z,97181.72
2022-09-07T06:18:39.347Z,97186.09
2022-09-07T06:21:24.803Z,97176.53
2022-09-07T06:24:10.228Z,97185.88
2022-09-07T06:26:55.669Z,97186.94
2022-09-07T06:29:40.980Z,97190.72
2022-09-07T06:35:27.767Z,97174.78
2022-09-07T06:38:13.329Z,97170.28
2022-09-07T06:44:08.036Z,97168.88
2022-09-07T06:49:46.997Z,97168.88
2022-09-07T06:55:44.908Z,97163.72
2022-09-07T06:58:30.500Z,97167.50
2022-09-07T07:01:20.316Z,97170.16
2022-09-07T07:04:05.823Z,97169.97
2022-09-07T07:06:51.147Z,97175.16
2022-09-07T07:09:36.474Z,97181.06
2022-09-07T07:15:06.730Z,97170.44
2022-09-07T07:17:58.974Z,97164.91
2022-09-07T07:20:47.845Z,97163.09
2022-09-07T07:23:34.480Z,97162.88
2022-09-07T07:26:23.760Z,97162.91
2022-09-07T07:29:08.875Z,97168.75
2022-09-07T07:31:54.474Z,97158.13
2022-09-07T07:34:39.792Z,97163.22
2022-09-07T07:37:28.181Z,97171.53
2022-09-07T07:40:15.798Z,97177.41
2022-09-07T07:43:03.065Z,97171.00
2022-09-07T07:45:55.730Z,97177.41
2022-09-07T07:48:41.958Z,97171.56
2022-09-07T07:51:27.612Z,97174.22
2022-09-07T07:54:12.759Z,97176.63
2022-09-07T07:56:58.080Z,97176.88
2022-09-07T07:59:43.360Z,97190.53
2022-09-07T08:02:28.751Z,97188.41
2022-09-07T08:05:14.253Z,97188.13
2022-09-07T08:07:59.489Z,97186.53
2022-09-07T08:10:47.319Z,97185.44
2022-09-07T08:13:33.822Z,97188.09
2022-09-07T08:16:19.586Z,97180.63
2022-09-07T08:19:05.813Z,97171.75
2022-09-07T08:21:51.192Z,97178.97
2022-09-07T08:24:36.666Z,97174.94
2022-09-07T08:27:22.012Z,97175.13
2022-09-07T08:30:08.583Z,97192.50
2022-09-07T08:32:53.867Z,97193.53
2022-09-07T08:35:39.197Z,97201.81
2022-09-07T08:38:25.336Z,97209.78
2022-09-07T08:41:48.866Z,97203.88
2022-09-07T08:44:37.572Z,97200.91
2022-09-07T08:47:38.970Z,97192.56
2022-09-07T08:50:29.561Z,97193.69
2022-09-07T08:53:17.860Z,97193.63
2022-09-07T08:56:12.275Z,97184.16
2022-09-07T08:59:00.432Z,97187.59
2022-09-07T09:02:27.053Z,97175.69
2022-09-07T09:08:06.946Z,97172.25
2022-09-07T09:11:05.983Z,97176.38
2022-09-07T09:17:30.758Z,97183.03
2022-09-07T09:20:24.021Z,97190.41
2022-09-07T09:23:13.117Z,97184.81
2022-09-07T09:26:13.380Z,97187.72
2022-09-07T09:29:11.453Z,97183.19
2022-09-07T09:31:57.041Z,97183.00
2022-09-07T09:35:00.668Z,97183.34
2022-09-07T09:37:46.536Z,97180.41
2022-09-07T09:40:37.079Z,97177.78
2022-09-07T09:43:26.009Z,97173.81
2022-09-07T09:46:33.463Z,97176.06
2022-09-07T09:49:23.909Z,97174.25
2022-09-07T09:52:41.791Z,97169.97
2022-09-07T09:55:35.854Z,97170.78
2022-09-07T10:04:44.976Z,97158.50
2022-09-07T10:07:31.917Z,97166.78
2022-09-07T10:10:36.425Z,97161.34
2022-09-07T10:13:26.890Z,97167.50
2022-09-07T10:16:12.543Z,97158.56
2022-09-07T10:18:59.520Z,97156.38
2022-09-07T10:21:45.579Z,97146.00
2022-09-07T10:24:39.662Z,97151.38
2022-09-07T10:27:34.841Z,97148.09
2022-09-07T10:30:20.369Z,97149.97
2022-09-07T10:33:18.806Z,97142.78
2022-09-07T10:36:24.542Z,97143.84
2022-09-07T10:39:35.781Z,97133.94
2022-09-07T10:42:24.260Z,97127.13
2022-09-07T10:45:31.622Z,97139.00
2022-09-07T10:48:32.663Z,97133.38
2022-09-07T10:51:24.502Z,97132.38
2022-09-07T10:54:42.267Z,97127.72
2022-09-07T10:58:05.235Z,97122.59
2022-09-07T11:00:53.928Z,97120.25
2022-09-07T11:03:48.956Z,97120.28
2022-09-07T11:06:49.155Z,97124.47
2022-09-07T11:10:05.532Z,97112.72
2022-09-07T11:12:54.133Z,97110.00
2022-09-07T11:16:05.607Z,97095.22
2022-09-07T11:19:35.008Z,97091.75
2022-09-07T11:22:25.527Z,97084.75
2022-09-07T11:25:31.359Z,97079.34
2022-09-07T11:28:23.246Z,97074.25
2022-09-07T11:31:22.095Z,97075.22
2022-09-07T11:34:25.210Z,97077.09
2022-09-07T11:37:18.889Z,97075.53
2022-09-07T11:40:14.285Z,97080.44
2022-09-07T11:43:18.284Z,97086.97
2022-09-07T11:46:10.196Z,97079.50
2022-09-07T11:48:56.700Z,97078.53
2022-09-07T11:51:54.092Z,97082.03
2022-09-07T11:54:42.587Z,97079.50
2022-09-07T11:57:49.002Z,97073.91
2022-09-07T12:01:05.408Z,97075.69
2022-09-07T12:04:03.026Z,97067.84
2022-09-07T12:07:18.118Z,97056.09
2022-09-07T12:10:39.082Z,97065.63
2022-09-07T12:13:55.543Z,97063.09
2022-09-07T12:16:58.181Z,97062.94
2022-09-07T12:19:44.168Z,97060.78
2022-09-07T12:22:29.734Z,97058.69
2022-09-07T12:25:18.566Z,97058.44
2022-09-07T12:28:04.178Z,97048.56
2022-09-07T12:31:12.526Z,97051.88
2022-09-07T12:34:33.515Z,97041.34
2022-09-07T12:37:27.494Z,97038.09
2022-09-07T12:40:32.359Z,97037.69
2022-09-07T12:43:17.880Z,97043.03
2022-09-07T12:46:03.724Z,97042.75
2022-09-07T12:49:04.727Z,97041.56
2022-09-07T12:52:16.759Z,97033.88
2022-09-07T12:55:29.538Z,97033.09
2022-09-07T12:58:31.503Z,97023.03
2022-09-07T13:01:35.796Z,97027.34
2022-09-07T13:04:41.168Z,97021.44
2022-09-07T13:07:33.852Z,97023.03
2022-09-07T13:10:35.995Z,97018.56
2022-09-07T13:19:46.005Z,97022.91
2022-09-07T13:22:31.417Z,97016.69
2022-09-07T13:25:36.923Z,97019.84
2022-09-07T13:28:23.749Z,97016.03
2022-09-07T13:31:22.083Z,97018.41
2022-09-07T13:34:36.104Z,97018.66
2022-09-07T13:37:26.307Z,97009.59
2022-09-07T13:40:18.015Z,97008.00
2022-09-07T13:43:04.351Z,97010.06
2022-09-07T13:45:55.580Z,97006.19
2022-09-07T13:48:51.436Z,97005.66
2022-09-07T13:51:47.738Z,97007.63
2022-09-07T13:54:48.540Z,97001.88
2022-09-07T13:58:05.365Z,97006.56
2022-09-07T14:00:55.318Z,97005.34
2022-09-07T14:03:57.184Z,97005.94
2022-09-07T14:06:42.535Z,96997.16
2022-09-07T14:09:27.793Z,96999.53
2022-09-07T14:12:21.467Z,96994.59
2022-09-07T14:15:19.206Z,96997.25
2022-09-07T14:18:11.224Z,96986.66
2022-09-07T14:20:58.693Z,96984.56
2022-09-07T14:23:50.723Z,96980.19
2022-09-07T14:26:36.007Z,96979.88
2022-09-07T14:29:24.110Z,96971.81
2022-09-07T14:32:13.336Z,96968.00
2022-09-07T14:34:58.689Z,96956.66
2022-09-07T14:37:46.178Z,96958.03
2022-09-07T14:40:31.634Z,96948.72
2022-09-07T14:43:33.044Z,96947.81
2022-09-07T14:46:26.914Z,96949.00
2022-09-07T14:49:20.580Z,96949.91
2022-09-07T14:52:06.152Z,96943.09
2022-09-07T14:54:52.924Z,96947.69
2022-09-07T14:57:38.355Z,96946.81
2022-09-07T15:00:31.439Z,96940.75
2022-09-07T15:03:38.380Z,96949.22
2022-09-07T15:09:40.452Z,96937.94
2022-09-07T15:12:38.108Z,96927.06
2022-09-07T15:15:33.862Z,96926.94
2022-09-07T15:18:51.774Z,96927.22
2022-09-07T15:21:37.687Z,96917.53
2022-09-07T15:24:23.006Z,96920.25
2022-09-07T15:27:27.138Z,96925.28
2022-09-07T15:30:12.762Z,96924.06
2022-09-07T15:32:58.299Z,96922.50
2022-09-07T15:35:43.636Z,96915.13
2022-09-07T15:41:34.842Z,96916.25
2022-09-07T15:44:25.163Z,96910.25
2022-09-07T15:50:17.554Z,96913.06
2022-09-07T15:53:03.154Z,96910.34
2022-09-07T15:55:54.898Z,96902.66
2022-09-07T15:58:43.178Z,96904.50
2022-09-07T16:04:33.714Z,96894.88
2022-09-07T16:07:19.762Z,96897.47
2022-09-07T16:10:06.098Z,96888.75
2022-09-07T16:15:59.988Z,96893.50
2022-09-07T16:18:47.271Z,96896.88
2022-09-07T16:21:33.087Z,96892.94
2022-09-07T16:24:18.395Z,96888.19
2022-09-07T16:27:03.750Z,96891.22
2022-09-07T16:29:49.254Z,96892.03
2022-09-07T16:32:50.187Z,96891.22
2022-09-07T16:35:35.842Z,96890.91
2022-09-07T16:41:29.452Z,96882.78
2022-09-07T16:44:15.055Z,96881.84
2022-09-07T16:47:00.851Z,96869.41
2022-09-07T16:49:46.478Z,96854.59
2022-09-07T16:52:34.526Z,96853.81
2022-09-07T16:55:19.966Z,96860.13
2022-09-07T17:01:13.563Z,96853.09
2022-09-07T17:03:59.510Z,96843.38
2022-09-07T17:06:44.900Z,96848.13
2022-09-07T17:09:30.579Z,96850.84
2022-09-07T17:12:15.896Z,96852.66
2022-09-07T17:15:01.191Z,96847.22
2022-09-07T17:17:46.539Z,96862.66
2022-09-07T17:20:32.006Z,96868.31
2022-09-07T17:23:17.433Z,96880.63
2022-09-07T17:26:13.881Z,96884.78
2022-09-07T17:29:00.908Z,96896.16
2022-09-07T17:34:52.107Z,96897.00
2022-09-07T17:37:37.433Z,96898.53
2022-09-07T17:40:23.577Z,96903.22
2022-09-07T17:46:20.904Z,96902.00
2022-09-07T17:49:10.213Z,96900.19
2022-09-07T17:51:58.481Z,96914.13
2022-09-07T17:54:44.028Z,96912.59
2022-09-07T17:57:30.823Z,96913.41
2022-09-07T18:00:16.234Z,96916.16
2022-09-07T18:03:03.504Z,96923.47
2022-09-07T18:05:53.271Z,96924.03
2022-09-07T18:08:38.619Z,96927.41
2022-09-07T18:14:30.170Z,96920.78
2022-09-07T18:17:15.388Z,96920.44
2022-09-07T18:20:01.023Z,96914.25
2022-09-07T18:22:46.424Z,96920.13
2022-09-07T18:25:31.740Z,96927.13
2022-09-07T18:31:25.055Z,96929.19
2022-09-07T18:34:11.782Z,96929.00
2022-09-07T18:36:58.562Z,96928.66
2022-09-07T18:39:43.952Z,96927.81
2022-09-07T18:42:30.290Z,96924.75
2022-09-07T18:45:31.222Z,96928.25
2022-09-07T18:48:16.425Z,96924.72
2022-09-07T18:51:02.422Z,96935.47
2022-09-07T18:53:47.992Z,96936.56
2022-09-07T18:56:33.384Z,96940.00
2022-09-07T18:59:18.669Z,96935.34
2022-09-07T19:02:06.357Z,96926.94
2022-09-07T19:07:59.753Z,96921.06
2022-09-07T19:10:46.480Z,96915.81
2022-09-07T19:13:31.917Z,96914.16
2022-09-07T19:16:19.458Z,96917.63
2022-09-07T19:19:06.958Z,96918.34
2022-09-07T19:21:52.811Z,96914.00
2022-09-07T19:24:38.452Z,96912.03
2022-09-07T19:27:23.601Z,96902.16
2022-09-07T19:30:09.711Z,96907.38
2022-09-07T19:32:54.956Z,96897.22
2022-09-07T19:35:40.134Z,96893.84
2022-09-07T19:38:25.459Z,96890.28
2022-09-07T19:41:14.096Z,96892.38
2022-09-07T19:44:00.255Z,96898.16
2022-09-07T19:46:45.926Z,96897.69
2022-09-07T19:49:31.818Z,96896.69
2022-09-07T19:52:17.188Z,96894.91
2022-09-07T19:55:03.998Z,96897.38
2022-09-07T19:57:51.331Z,96890.06
2022-09-07T20:00:39.223Z,96888.84
2022-09-07T20:03:24.794Z,96897.63
2022-09-07T20:06:12.810Z,96895.34
2022-09-07T20:09:00.113Z,96886.59
2022-09-07T20:11:47.499Z,96890.75
2022-09-07T20:14:33.216Z,96888.69
2022-09-07T20:17:18.527Z,96891.28
2022-09-07T20:20:05.435Z,96890.06
2022-09-07T20:22:51.321Z,96895.91
2022-09-07T20:25:36.767Z,96894.63
2022-09-07T20:28:21.965Z,96889.81
2022-09-07T20:31:10.296Z,96887.72
2022-09-07T20:33:56.894Z,96878.16
2022-09-07T20:36:42.227Z,96880.16
2022-09-07T20:39:27.556Z,96871.38
2022-09-07T20:42:13.086Z,96861.81
2022-09-07T20:44:58.278Z,96864.56
2022-09-07T20:47:44.769Z,96855.53
2022-09-07T20:50:30.264Z,96859.38
2022-09-07T20:53:16.872Z,96854.59
2022-09-07T20:56:03.685Z,96867.25
2022-09-07T20:58:53.657Z,96854.09
2022-09-07T21:01:39.214Z,96850.97
2022-09-07T21:04:26.422Z,96859.94
2022-09-07T21:07:12.110Z,96862.97
2022-09-07T21:09:57.339Z,96849.94
2022-09-07T21:12:42.956Z,96851.31
2022-09-07T21:15:29.334Z,96840.38
2022-09-07T21:18:16.506Z,96855.16
2022-09-07T21:21:20.093Z,96851.44
2022-09-07T21:24:07.132Z,96849.91
2022-09-07T21:26:52.680Z,96854.00
2022-09-07T21:29:37.934Z,96849.19
2022-09-07T21:32:23.570Z,96846.59
2022-09-07T21:35:10.177Z,96843.97
2022-09-07T21:37:55.915Z,96849.13
2022-09-07T21:40:41.518Z,96844.94
2022-09-07T21:43:27.319Z,96838.91
2022-09-07T21:46:15.980Z,96833.91
2022-09-07T21:49:02.125Z,96834.47
2022-09-07T21:51:47.703Z,96832.94
2022-09-07T21:54:33.202Z,96834.09
2022-09-07T21:57:18.603Z,96828.22
2022-09-07T22:00:05.568Z,96817.00
2022-09-07T22:02:53.927Z,96819.16
2022-09-07T22:05:39.651Z,96817.88
2022-09-07T22:08:24.970Z,96817.63
2022-09-07T22:11:13.578Z,96809.06
2022-09-07T22:14:01.946Z,96800.03
2022-09-07T22:16:47.629Z,96792.31
2022-09-07T22:19:33.159Z,96788.91
2022-09-07T22:22:18.836Z,96787.88
2022-09-07T22:25:05.407Z,96788.44
2022-09-07T22:27:50.886Z,96784.22
2022-09-07T22:30:36.209Z,96778.41
2022-09-07T22:33:22.027Z,96792.09
2022-09-07T22:36:12.640Z,96795.03
2022-09-07T22:39:00.830Z,96790.84
2022-09-07T22:41:47.471Z,96790.88
2022-09-07T22:47:36.123Z,96788.22
2022-09-07T22:50:21.596Z,96794.16
2022-09-07T22:53:06.883Z,96798.19
2022-09-07T22:55:52.562Z,96795.84
2022-09-07T22:58:38.624Z,96791.06
2022-09-07T23:01:24.756Z,96787.88
2022-09-07T23:04:11.175Z,96790.84
2022-09-07T23:06:56.920Z,96790.59
2022-09-07T23:09:42.281Z,96782.06
2022-09-07T23:12:28.025Z,96788.78
2022-09-07T23:15:13.226Z,96788.84
2022-09-07T23:17:58.872Z,96782.19
2022-09-07T23:20:44.469Z,96773.13
2022-09-07T23:23:30.705Z,96768.63
2022-09-07T23:26:15.913Z,96765.72
2022-09-07T23:29:04.528Z,96770.28
2022-09-07T23:31:50.057Z,96770.03
2022-09-07T23:34:35.730Z,96759.41
2022-09-07T23:37:21.111Z,96762.72
2022-09-07T23:40:08.612Z,96764.88
2022-09-07T23:42:54.220Z,96753.63
2022-09-07T23:45:39.681Z,96741.84
2022-09-07T23:48:25.731Z,96741.31
2022-09-07T23:51:12.316Z,96753.09
2022-09-07T23:53:57.676Z,96747.22
2022-09-07T23:56:43.248Z,96746.69
2022-09-07T23:59:28.432Z,96745.66
